createdAt,value
2022-11-02T00:00:46.836Z,12.60
2022-11-02T00:03:29.550Z,11.52
2022-11-02T00:05:56.564Z,12.30
2022-11-02T00:08:23.329Z,11.57
2022-11-02T00:10:50.312Z,14.05
2022-11-02T00:13:17.078Z,11.63
2022-11-02T00:15:44.067Z,11.60
2022-11-02T00:18:12.500Z,11.70
2022-11-02T00:20:41.982Z,11.70
2022-11-02T00:25:44.126Z,12.38
2022-11-02T00:28:11.237Z,10.55
2022-11-02T00:30:38.539Z,10.57
2022-11-02T00:33:05.627Z,11.82
2022-11-02T00:35:34.244Z,10.52
2022-11-02T00:38:01.112Z,10.80
2022-11-02T00:40:28.525Z,11.27
2022-11-02T00:42:55.351Z,11.23
2022-11-02T00:45:23.018Z,11.45
2022-11-02T00:47:50.359Z,10.75
2022-11-02T00:50:17.616Z,11.40
2022-11-02T00:52:44.379Z,10.85
2022-11-02T00:55:12.066Z,10.90
2022-11-02T00:57:40.343Z,11.13
2022-11-02T01:00:10.145Z,11.52
2022-11-02T01:02:38.259Z,11.23
2022-11-02T01:05:06.589Z,10.77
2022-11-02T01:07:33.831Z,11.25
2022-11-02T01:10:00.860Z,12.65
2022-11-02T01:12:27.700Z,11.43
2022-11-02T01:14:54.623Z,11.35
2022-11-02T01:17:21.541Z,12.13
2022-11-02T01:19:50.395Z,13.32
2022-11-02T01:22:17.161Z,12.70
2022-11-02T01:24:44.073Z,13.73
2022-11-02T01:27:10.864Z,12.52
2022-11-02T01:29:37.844Z,12.32
2022-11-02T01:32:04.863Z,12.38
2022-11-02T01:34:32.045Z,12.55
2022-11-02T01:36:59.094Z,12.25
2022-11-02T01:39:26.041Z,11.93
2022-11-02T01:41:54.073Z,12.10
2022-11-02T01:44:31.314Z,11.65
2022-11-02T01:47:08.995Z,12.35
2022-11-02T01:49:39.303Z,11.90
2022-11-02T01:52:20.097Z,11.63
2022-11-02T01:54:59.267Z,12.18
2022-11-02T01:57:28.732Z,12.15
2022-11-02T02:00:05.597Z,12.40
2022-11-02T02:02:35.282Z,11.40
2022-11-02T02:05:07.782Z,11.52
2022-11-02T02:07:37.317Z,10.93
2022-11-02T02:10:05.903Z,12.43
2022-11-02T02:12:34.690Z,12.53
2022-11-02T02:15:01.948Z,11.45
2022-11-02T02:17:50.188Z,11.63
2022-11-02T02:20:46.713Z,12.63
2022-11-02T02:23:19.246Z,11.07
2022-11-02T02:26:07.515Z,10.80
2022-11-02T02:28:41.432Z,11.55
2022-11-02T02:31:16.540Z,10.60
2022-11-02T02:34:20.914Z,9.85
2022-11-02T02:36:57.967Z,10.07
2022-11-02T02:39:27.433Z,10.70
2022-11-02T02:42:06.608Z,11.00
2022-11-02T02:44:38.340Z,10.95
2022-11-02T02:47:17.825Z,11.45
2022-11-02T02:52:19.838Z,10.85
2022-11-02T02:57:18.622Z,12.75
2022-11-02T02:59:48.673Z,11.70
2022-11-02T03:02:24.712Z,11.38
2022-11-02T03:04:51.541Z,11.95
2022-11-02T03:07:23.756Z,11.18
2022-11-02T03:10:11.988Z,12.55
2022-11-02T03:12:54.253Z,11.27
2022-11-02T03:15:48.536Z,10.65
2022-11-02T03:18:25.192Z,11.23
2022-11-02T03:21:10.560Z,12.48
2022-11-02T03:23:59.955Z,12.15
2022-11-02T03:29:12.753Z,14.65
2022-11-02T03:31:51.961Z,14.32
2022-11-02T03:34:39.135Z,15.43
2022-11-02T03:37:30.358Z,15.77
2022-11-02T03:40:26.079Z,18.20
2022-11-02T03:42:54.182Z,17.27
2022-11-02T03:45:29.546Z,17.70
2022-11-02T03:48:02.269Z,19.25
2022-11-02T03:50:29.771Z,16.48
2022-11-02T03:53:03.829Z,16.73
2022-11-02T03:55:38.099Z,16.08
2022-11-02T03:58:05.154Z,15.70
2022-11-02T04:00:36.202Z,14.80
2022-11-02T04:03:07.079Z,14.05
2022-11-02T04:05:35.917Z,14.40
2022-11-02T04:08:23.098Z,16.10
2022-11-02T04:11:10.216Z,15.63
2022-11-02T04:13:56.143Z,14.82
2022-11-02T04:16:27.579Z,15.35
2022-11-02T04:19:13.582Z,14.68
2022-11-02T04:21:41.045Z,14.77
2022-11-02T04:24:27.344Z,14.43
2022-11-02T04:26:54.339Z,15.32
2022-11-02T04:29:21.064Z,14.80
2022-11-02T04:31:48.026Z,14.55
2022-11-02T04:34:14.742Z,14.90
2022-11-02T04:36:41.786Z,15.15
2022-11-02T04:39:08.572Z,14.98
2022-11-02T04:41:44.712Z,14.70
2022-11-02T04:44:14.434Z,15.68
2022-11-02T04:46:43.274Z,14.48
2022-11-02T04:49:11.391Z,14.73
2022-11-02T04:51:41.109Z,16.70
2022-11-02T04:54:10.123Z,15.00
2022-11-02T04:56:37.086Z,16.83
2022-11-02T04:59:03.952Z,16.48
2022-11-02T05:01:31.120Z,16.00
2022-11-02T05:03:58.093Z,17.30
2022-11-02T05:06:25.501Z,18.15
2022-11-02T05:08:52.541Z,17.58
2022-11-02T05:11:19.686Z,14.60
2022-11-02T05:13:46.692Z,15.95
2022-11-02T05:16:15.993Z,17.15
2022-11-02T05:18:43.561Z,18.20
2022-11-02T05:21:12.394Z,16.83
2022-11-02T05:23:39.693Z,17.27
2022-11-02T05:26:11.902Z,17.05
2022-11-02T05:28:38.803Z,16.88
2022-11-02T05:31:06.150Z,17.50
2022-11-02T05:33:33.072Z,17.48
2022-11-02T05:36:00.427Z,17.40
2022-11-02T05:38:28.358Z,17.88
2022-11-02T05:40:57.825Z,16.27
2022-11-02T05:43:25.098Z,17.27
2022-11-02T05:45:57.338Z,17.95
2022-11-02T05:48:25.830Z,19.02
2022-11-02T05:51:00.519Z,15.65
2022-11-02T05:53:31.768Z,17.10
2022-11-02T05:56:03.063Z,17.55
2022-11-02T05:58:29.920Z,16.50
2022-11-02T06:01:01.705Z,15.93
2022-11-02T06:03:29.492Z,16.50
2022-11-02T06:06:01.131Z,15.50
2022-11-02T06:08:28.171Z,15.38
2022-11-02T06:10:55.194Z,14.73
2022-11-02T06:13:21.958Z,14.98
2022-11-02T06:15:48.934Z,15.20
2022-11-02T06:18:15.666Z,15.20
2022-11-02T06:20:42.853Z,15.35
2022-11-02T06:23:09.715Z,15.13
2022-11-02T06:25:36.640Z,15.95
2022-11-02T06:28:03.396Z,17.02
2022-11-02T06:30:30.361Z,16.67
2022-11-02T06:32:58.690Z,16.13
2022-11-02T06:35:28.432Z,16.90
2022-11-02T06:37:55.199Z,15.73
2022-11-02T06:40:25.654Z,15.38
2022-11-02T06:43:15.565Z,14.35
2022-11-02T06:45:43.295Z,16.58
2022-11-02T06:48:10.128Z,15.40
2022-11-02T06:50:37.117Z,15.68
2022-11-02T06:53:04.441Z,15.13
2022-11-02T06:55:31.674Z,15.20
2022-11-02T06:57:58.420Z,17.23
2022-11-02T07:00:25.542Z,16.45
2022-11-02T07:03:06.986Z,15.38
2022-11-02T07:05:34.558Z,16.50
2022-11-02T07:08:01.384Z,15.95
2022-11-02T07:10:28.815Z,17.55
2022-11-02T07:12:57.231Z,17.77
2022-11-02T07:15:25.956Z,16.48
2022-11-02T07:17:53.498Z,17.92
2022-11-02T07:20:20.988Z,16.85
2022-11-02T07:22:59.875Z,15.00
2022-11-02T07:25:31.109Z,15.27
2022-11-02T07:28:00.003Z,15.18
2022-11-02T07:30:29.198Z,15.60
2022-11-02T07:32:56.004Z,15.60
2022-11-02T07:35:22.997Z,14.70
2022-11-02T07:37:57.847Z,13.65
2022-11-02T07:40:24.903Z,13.40
2022-11-02T07:42:54.010Z,13.48
2022-11-02T07:47:49.231Z,10.88
2022-11-02T07:50:19.702Z,10.63
2022-11-02T07:52:54.614Z,9.85
2022-11-02T07:55:24.063Z,10.15
2022-11-02T08:00:28.081Z,10.02
2022-11-02T08:02:56.109Z,10.18
2022-11-02T08:05:23.547Z,10.37
2022-11-02T08:07:58.322Z,10.43
2022-11-02T08:10:25.859Z,12.10
2022-11-02T08:12:52.927Z,12.38
2022-11-02T08:15:19.896Z,11.98
2022-11-02T08:17:47.071Z,11.55
2022-11-02T08:20:14.339Z,11.50
2022-11-02T08:22:41.482Z,11.57
2022-11-02T08:25:08.741Z,9.88
2022-11-02T08:27:35.864Z,10.00
2022-11-02T08:30:02.608Z,12.25
2022-11-02T08:32:29.779Z,10.68
2022-11-02T08:34:56.520Z,10.07
2022-11-02T08:37:23.561Z,10.82
2022-11-02T08:39:50.413Z,10.15
2022-11-02T08:42:17.615Z,10.52
2022-11-02T08:44:44.349Z,8.82
2022-11-02T08:47:11.410Z,9.18
2022-11-02T08:49:38.160Z,8.70
2022-11-02T08:52:05.363Z,8.57
2022-11-02T08:54:32.185Z,8.90
2022-11-02T08:56:59.304Z,8.15
2022-11-02T08:59:26.064Z,8.25
2022-11-02T09:01:53.213Z,8.02
2022-11-02T09:04:20.148Z,8.77
2022-11-02T09:06:47.240Z,8.50
2022-11-02T09:09:13.948Z,8.82
2022-11-02T09:11:40.993Z,7.93
2022-11-02T09:14:08.019Z,7.60
2022-11-02T09:16:40.214Z,7.53
2022-11-02T09:19:08.038Z,7.45
2022-11-02T09:21:35.126Z,8.25
2022-11-02T09:24:01.881Z,7.47
2022-11-02T09:26:29.002Z,8.60
2022-11-02T09:28:55.719Z,6.47
2022-11-02T09:31:22.736Z,6.32
2022-11-02T09:33:49.481Z,7.65
2022-11-02T09:36:16.558Z,6.50
2022-11-02T09:38:43.358Z,6.93
2022-11-02T09:41:26.814Z,6.60
2022-11-02T09:44:11.250Z,7.13
2022-11-02T09:46:42.365Z,6.60
2022-11-02T09:49:16.453Z,6.70
2022-11-02T09:51:51.238Z,6.47
2022-11-02T09:54:30.811Z,5.97
2022-11-02T09:57:13.136Z,6.88
2022-11-02T09:59:41.351Z,7.13
2022-11-02T10:02:41.599Z,7.30
2022-11-02T10:05:11.188Z,5.82
2022-11-02T10:08:15.837Z,5.50
2022-11-02T10:11:10.280Z,6.70
2022-11-02T10:13:37.297Z,6.90
2022-11-02T10:16:12.783Z,6.03
2022-11-02T10:18:41.925Z,6.60
2022-11-02T10:21:21.991Z,6.05
2022-11-02T10:23:55.006Z,5.45
2022-11-02T10:26:32.018Z,5.68
2022-11-02T10:29:03.445Z,5.45
2022-11-02T10:31:34.538Z,5.25
2022-11-02T10:34:13.738Z,5.07
2022-11-02T10:39:42.517Z,5.53
2022-11-02T10:42:55.515Z,5.57
2022-11-02T10:45:44.066Z,5.88
2022-11-02T10:48:36.736Z,5.07
2022-11-02T10:51:15.460Z,4.90
2022-11-02T10:53:45.138Z,5.20
2022-11-02T10:56:12.427Z,5.78
2022-11-02T10:58:45.314Z,5.50
2022-11-02T11:01:13.312Z,5.22
2022-11-02T11:03:52.749Z,6.22
2022-11-02T11:06:20.620Z,5.40
2022-11-02T11:08:50.030Z,5.33
2022-11-02T11:11:26.477Z,5.68
2022-11-02T11:16:56.187Z,4.43
2022-11-02T11:19:39.311Z,5.07
2022-11-02T11:22:25.671Z,4.55
2022-11-02T11:24:52.957Z,4.90
2022-11-02T11:27:21.987Z,4.70
2022-11-02T11:29:54.779Z,4.47
2022-11-02T11:32:30.253Z,4.38
2022-11-02T11:35:07.960Z,5.57
2022-11-02T11:37:34.796Z,5.80
2022-11-02T11:40:16.562Z,4.88
2022-11-02T11:42:43.732Z,5.28
2022-11-02T11:45:26.382Z,5.20
2022-11-02T11:47:57.204Z,5.55
2022-11-02T11:50:26.077Z,5.43
2022-11-02T11:53:19.586Z,5.22
2022-11-02T11:55:55.203Z,5.03
2022-11-02T11:58:28.951Z,5.32
2022-11-02T12:01:07.525Z,5.22
2022-11-02T12:03:57.034Z,5.22
2022-11-02T12:06:35.002Z,6.20
2022-11-02T12:09:17.717Z,5.28
2022-11-02T12:11:56.477Z,5.57
2022-11-02T12:14:41.912Z,4.72
2022-11-02T12:17:18.121Z,7.85
2022-11-02T12:19:50.719Z,7.55
2022-11-02T12:23:06.742Z,7.30
2022-11-02T12:25:48.811Z,5.40
2022-11-02T12:28:57.786Z,6.63
2022-11-02T12:31:37.417Z,6.18
2022-11-02T12:34:22.344Z,6.50
2022-11-02T12:37:35.734Z,5.18
2022-11-02T12:40:16.994Z,6.28
2022-11-02T12:42:53.671Z,7.68
2022-11-02T12:45:37.480Z,8.98
2022-11-02T12:48:05.832Z,8.68
2022-11-02T12:51:09.961Z,8.00
2022-11-02T12:53:47.098Z,10.82
2022-11-02T12:56:25.333Z,12.98
2022-11-02T12:58:52.596Z,11.20
2022-11-02T13:01:26.030Z,13.95
2022-11-02T13:04:14.313Z,12.27
2022-11-02T13:06:50.104Z,11.35
2022-11-02T13:09:25.797Z,9.10
2022-11-02T13:12:09.478Z,9.98
2022-11-02T13:14:49.116Z,9.15
2022-11-02T13:17:18.804Z,9.05
2022-11-02T13:19:56.044Z,8.90
2022-11-02T13:22:32.862Z,8.30
2022-11-02T13:25:22.185Z,8.57
2022-11-02T13:28:01.254Z,8.32
2022-11-02T13:30:32.777Z,15.40
2022-11-02T13:32:59.765Z,6.32
2022-11-02T13:35:40.994Z,7.07
2022-11-02T13:38:46.669Z,6.80
2022-11-02T13:41:20.219Z,8.52
2022-11-02T13:44:24.870Z,8.20
2022-11-02T13:47:03.473Z,7.57
2022-11-02T13:49:37.369Z,8.02
2022-11-02T13:52:44.069Z,8.77
2022-11-02T13:55:19.492Z,9.45
2022-11-02T13:57:52.611Z,7.53
2022-11-02T14:00:22.817Z,6.32
2022-11-02T14:02:54.517Z,6.40
2022-11-02T14:05:30.525Z,7.47
2022-11-02T14:08:35.658Z,8.88
2022-11-02T14:11:10.832Z,9.35
2022-11-02T14:13:55.858Z,8.80
2022-11-02T14:16:51.194Z,8.68
2022-11-02T14:19:19.349Z,9.43
2022-11-02T14:21:52.813Z,44.53
2022-11-02T14:24:34.488Z,9.57
2022-11-02T14:27:13.851Z,8.13
2022-11-02T14:29:46.645Z,9.43
2022-11-02T14:32:34.751Z,9.88
2022-11-02T14:35:13.682Z,9.00
2022-11-02T14:37:59.516Z,8.88
2022-11-02T14:40:26.573Z,8.15
2022-11-02T14:42:59.686Z,7.35
2022-11-02T14:45:39.296Z,7.63
2022-11-02T14:48:11.259Z,7.38
2022-11-02T14:50:38.107Z,8.20
2022-11-02T14:53:08.947Z,9.38
2022-11-02T14:55:40.383Z,11.82
2022-11-02T14:58:16.726Z,19.65
2022-11-02T15:00:49.836Z,31.15
2022-11-02T15:03:26.293Z,30.15
2022-11-02T15:06:20.133Z,50.83
2022-11-02T15:09:01.948Z,35.55
2022-11-02T15:11:48.704Z,63.67
2022-11-02T15:14:37.987Z,59.08
2022-11-02T15:17:10.732Z,41.55
2022-11-02T15:19:40.623Z,48.60
2022-11-02T15:22:29.028Z,57.28
2022-11-02T15:25:00.374Z,54.40
2022-11-02T15:27:28.854Z,71.95
2022-11-02T15:29:56.730Z,31.73
2022-11-02T15:32:26.965Z,28.00
2022-11-02T15:34:55.727Z,29.73
2022-11-02T15:37:28.929Z,41.10
2022-11-02T15:40:00.820Z,59.50
2022-11-02T15:42:58.196Z,76.32
2022-11-02T15:45:56.950Z,42.50
2022-11-02T15:48:39.342Z,48.78
2022-11-02T15:51:09.341Z,62.40
2022-11-02T15:53:57.395Z,66.35
2022-11-02T15:56:24.448Z,56.90
2022-11-02T15:59:12.596Z,54.95
2022-11-02T16:01:40.327Z,52.25
2022-11-02T16:04:10.819Z,51.67
2022-11-02T16:06:37.800Z,42.03
2022-11-02T16:09:34.301Z,39.40
2022-11-02T16:12:23.917Z,20.70
2022-11-02T16:14:57.704Z,33.53
2022-11-02T16:17:27.849Z,39.80
2022-11-02T16:20:11.523Z,51.65
2022-11-02T16:22:39.388Z,65.95
2022-11-02T16:25:19.672Z,61.35
2022-11-02T16:27:47.152Z,56.38
2022-11-02T16:30:22.214Z,61.20
2022-11-02T16:32:58.733Z,58.15
2022-11-02T16:35:26.513Z,63.08
2022-11-02T16:37:53.629Z,61.40
2022-11-02T16:40:21.259Z,67.25
2022-11-02T16:42:53.451Z,74.03
2022-11-02T16:45:40.257Z,77.85
2022-11-02T16:48:18.149Z,87.18
2022-11-02T16:51:15.034Z,83.15
2022-11-02T16:53:42.380Z,79.53
2022-11-02T16:56:14.458Z,79.85
2022-11-02T16:58:49.728Z,76.68
2022-11-02T17:01:23.279Z,102.07
2022-11-02T17:03:50.683Z,95.07
2022-11-02T17:06:18.955Z,79.53
2022-11-02T17:08:53.089Z,82.28
2022-11-02T17:11:20.400Z,102.97
2022-11-02T17:13:56.868Z,198.68
2022-11-02T17:16:23.922Z,106.05
2022-11-02T17:18:50.716Z,142.45
2022-11-02T17:21:25.065Z,92.38
2022-11-02T17:23:52.214Z,86.00
2022-11-02T17:26:22.134Z,118.43
2022-11-02T17:28:54.637Z,104.03
2022-11-02T17:31:28.455Z,80.30
2022-11-02T17:33:59.320Z,81.22
2022-11-02T17:36:27.143Z,97.03
2022-11-02T17:38:55.581Z,91.47
2022-11-02T17:41:43.860Z,82.50
2022-11-02T17:44:17.201Z,87.10
2022-11-02T17:46:46.051Z,98.70
2022-11-02T17:49:13.221Z,86.13
2022-11-02T17:51:40.817Z,87.93
2022-11-02T17:54:12.145Z,86.20
2022-11-02T17:56:39.530Z,93.57
2022-11-02T17:59:06.287Z,65.75
2022-11-02T18:01:33.519Z,75.57
2022-11-02T18:04:00.432Z,72.70
2022-11-02T18:06:29.762Z,74.07
2022-11-02T18:09:11.797Z,71.53
2022-11-02T18:11:38.835Z,71.20
2022-11-02T18:14:05.624Z,74.87
2022-11-02T18:16:32.937Z,72.38
2022-11-02T18:18:59.677Z,65.10
2022-11-02T18:21:26.702Z,60.75
2022-11-02T18:23:53.473Z,62.20
2022-11-02T18:26:20.568Z,66.40
2022-11-02T18:28:47.309Z,64.10
2022-11-02T18:31:14.385Z,60.43
2022-11-02T18:33:42.839Z,53.53
2022-11-02T18:36:10.887Z,56.83
2022-11-02T18:38:38.038Z,53.70
2022-11-02T18:41:27.783Z,48.03
2022-11-02T18:44:02.202Z,45.63
2022-11-02T18:46:31.863Z,46.87
2022-11-02T18:48:58.692Z,49.83
2022-11-02T18:51:26.249Z,53.33
2022-11-02T18:54:01.392Z,48.40
2022-11-02T18:56:29.413Z,44.30
2022-11-02T18:58:57.138Z,49.77
2022-11-02T19:01:25.365Z,47.03
2022-11-02T19:03:57.473Z,53.07
2022-11-02T19:06:43.994Z,79.10
2022-11-02T19:09:18.575Z,53.77
2022-11-02T19:11:51.687Z,52.00
2022-11-02T19:14:19.925Z,50.85
2022-11-02T19:16:47.338Z,42.45
2022-11-02T19:19:14.114Z,52.90
2022-11-02T19:21:41.216Z,42.40
2022-11-02T19:24:08.392Z,37.40
2022-11-02T19:26:36.510Z,40.45
2022-11-02T19:29:06.343Z,43.47
2022-11-02T19:31:35.353Z,42.00
2022-11-02T19:34:02.339Z,41.93
2022-11-02T19:36:29.430Z,40.37
2022-11-02T19:38:56.300Z,44.57
2022-11-02T19:41:23.953Z,49.40
2022-11-02T19:43:50.966Z,43.03
2022-11-02T19:46:20.893Z,40.33
2022-11-02T19:48:47.733Z,43.33
2022-11-02T19:51:20.237Z,38.80
2022-11-02T19:53:52.376Z,38.80
2022-11-02T19:56:20.827Z,39.40
2022-11-02T19:58:49.816Z,40.83
2022-11-02T20:03:54.856Z,38.93
2022-11-02T20:06:26.328Z,40.87
2022-11-02T20:08:55.808Z,44.63
2022-11-02T20:11:24.059Z,43.60
2022-11-02T20:13:52.209Z,40.63
2022-11-02T20:16:19.882Z,32.90
2022-11-02T20:18:48.801Z,33.80
2022-11-02T20:23:47.788Z,27.40
2022-11-02T20:26:20.995Z,25.63
2022-11-02T20:28:48.619Z,23.70
2022-11-02T20:31:21.501Z,22.73
2022-11-02T20:33:48.863Z,24.13
2022-11-02T20:36:16.358Z,23.08
2022-11-02T20:38:43.556Z,24.73
2022-11-02T20:41:17.130Z,23.10
2022-11-02T20:43:46.121Z,22.10
2022-11-02T20:49:13.703Z,22.55
2022-11-02T20:51:49.274Z,23.42
2022-11-02T20:54:18.363Z,22.45
2022-11-02T20:56:45.493Z,22.30
2022-11-02T20:59:12.242Z,21.02
2022-11-02T21:01:39.370Z,23.13
2022-11-02T21:04:06.345Z,18.10
2022-11-02T21:06:33.399Z,17.90
2022-11-02T21:09:00.694Z,17.88
2022-11-02T21:11:46.424Z,19.15
2022-11-02T21:14:13.174Z,15.52
2022-11-02T21:16:40.223Z,17.27
2022-11-02T21:19:07.635Z,17.75
2022-11-02T21:21:34.677Z,19.05
2022-11-02T21:24:01.517Z,18.33
2022-11-02T21:26:28.507Z,19.92
2022-11-02T21:28:55.250Z,17.60
2022-11-02T21:31:22.420Z,18.50
2022-11-02T21:33:49.998Z,18.75
2022-11-02T21:36:17.925Z,17.48
2022-11-02T21:38:45.540Z,17.27
2022-11-02T21:41:19.784Z,17.25
2022-11-02T21:43:46.630Z,17.57
2022-11-02T21:46:13.697Z,18.90
2022-11-02T21:48:40.496Z,19.73
2022-11-02T21:51:13.014Z,17.63
2022-11-02T21:53:42.753Z,19.67
2022-11-02T21:56:11.218Z,21.40
2022-11-02T21:58:43.048Z,21.13
2022-11-02T22:01:34.722Z,19.92
2022-11-02T22:04:02.308Z,20.20
2022-11-02T22:06:31.566Z,18.00
2022-11-02T22:09:02.160Z,17.30
2022-11-02T22:11:29.723Z,18.58
2022-11-02T22:13:58.487Z,18.60
2022-11-02T22:16:28.278Z,17.75
2022-11-02T22:19:00.492Z,19.17
2022-11-02T22:21:30.523Z,20.77
2022-11-02T22:23:57.806Z,22.25
2022-11-02T22:26:27.271Z,22.55
2022-11-02T22:28:57.202Z,22.85
2022-11-02T22:31:27.179Z,21.92
2022-11-02T22:33:56.650Z,19.77
2022-11-02T22:36:26.078Z,19.63
2022-11-02T22:38:54.456Z,18.63
2022-11-02T22:41:41.142Z,17.30
2022-11-02T22:44:19.153Z,19.20
2022-11-02T22:46:49.655Z,16.93
2022-11-02T22:49:18.576Z,18.00
2022-11-02T22:51:48.252Z,17.23
2022-11-02T22:56:44.691Z,17.10
2022-11-02T22:59:11.503Z,16.95
2022-11-02T23:01:39.554Z,16.25
2022-11-02T23:04:07.008Z,17.80
2022-11-02T23:06:34.721Z,18.38
2022-11-02T23:09:02.286Z,18.95
2022-11-02T23:11:36.364Z,18.38
2022-11-02T23:14:06.051Z,19.20
2022-11-02T23:16:34.437Z,16.98
2022-11-02T23:19:29.212Z,16.30
2022-11-02T23:22:21.499Z,15.93
2022-11-02T23:25:11.283Z,15.63
2022-11-02T23:28:14.898Z,18.33
2022-11-02T23:31:01.104Z,17.38
2022-11-02T23:33:31.235Z,17.60
2022-11-02T23:36:15.434Z,17.25
2022-11-02T23:39:03.179Z,18.60
2022-11-02T23:41:32.239Z,18.63
2022-11-02T23:46:46.172Z,15.98
2022-11-02T23:49:15.519Z,14.65
2022-11-02T23:52:00.882Z,15.82
2022-11-02T23:54:46.829Z,14.40
2022-11-02T23:57:13.682Z,15.68
2022-11-02T23:59:40.798Z,16.90
